sensor_id;sensor_type;location;lat;lon;timestamp;P1;durP1;ratioP1;P2;durP2;ratioP2
13075;SDS011;6604;52.484;13.330;2022-08-19T07:48:40;18.73;;;16.83;;
13075;SDS011;6604;52.484;13.330;2022-08-19T07:51:08;17.93;;;16.13;;
13075;SDS011;6604;52.484;13.330;2022-08-19T07:53:36;21.10;;;18.93;;
13075;SDS011;6604;52.484;13.330;2022-08-19T07:56:03;18.60;;;16.80;;
13075;SDS011;6604;52.484;13.330;2022-08-19T07:58:30;18.50;;;16.33;;
13075;SDS011;6604;52.484;13.330;2022-08-19T08:00:56;17.80;;;16.00;;
13075;SDS011;6604;52.484;13.330;2022-08-19T08:03:23;18.77;;;17.03;;
13075;SDS011;6604;52.484;13.330;2022-08-19T08:06:12;18.80;;;17.00;;
13075;SDS011;6604;52.484;13.330;2022-08-19T08:08:56;18.17;;;16.43;;
13075;SDS011;6604;52.484;13.330;2022-08-19T08:11:41;17.97;;;16.13;;
13075;SDS011;6604;52.484;13.330;2022-08-19T08:14:09;21.47;;;19.23;;
13075;SDS011;6604;52.484;13.330;2022-08-19T08:16:38;17.70;;;15.90;;
13075;SDS011;6604;52.484;13.330;2022-08-19T08:19:04;18.97;;;17.00;;
13075;SDS011;6604;52.484;13.330;2022-08-19T08:21:33;17.80;;;16.03;;
13075;SDS011;6604;52.484;13.330;2022-08-19T08:23:59;18.23;;;16.33;;
13075;SDS011;6604;52.484;13.330;2022-08-19T08:26:25;19.20;;;17.20;;
13075;SDS011;6604;52.484;13.330;2022-08-19T08:28:52;19.73;;;17.53;;
13075;SDS011;6604;52.484;13.330;2022-08-19T08:31:19;19.27;;;17.47;;
13075;SDS011;6604;52.484;13.330;2022-08-19T08:33:46;19.83;;;17.87;;
13075;SDS011;6604;52.484;13.330;2022-08-19T08:36:13;20.40;;;18.37;;
13075;SDS011;6604;52.484;13.330;2022-08-19T08:38:41;19.77;;;17.70;;
13075;SDS011;6604;52.484;13.330;2022-08-19T08:41:12;20.53;;;18.23;;
13075;SDS011;6604;52.484;13.330;2022-08-19T08:43:44;20.20;;;18.07;;
13075;SDS011;6604;52.484;13.330;2022-08-19T08:46:12;20.77;;;18.77;;
13075;SDS011;6604;52.484;13.330;2022-08-19T08:48:42;21.30;;;19.20;;
13075;SDS011;6604;52.484;13.330;2022-08-19T08:51:11;20.03;;;18.10;;
13075;SDS011;6604;52.484;13.330;2022-08-19T08:53:38;22.27;;;19.33;;
13075;SDS011;6604;52.484;13.330;2022-08-19T08:56:08;21.27;;;19.23;;
13075;SDS011;6604;52.484;13.330;2022-08-19T08:58:40;21.53;;;19.40;;
13075;SDS011;6604;52.484;13.330;2022-08-19T09:01:08;22.63;;;20.43;;
13075;SDS011;6604;52.484;13.330;2022-08-19T09:03:36;21.53;;;19.43;;
13075;SDS011;6604;52.484;13.330;2022-08-19T09:06:04;21.47;;;19.37;;
13075;SDS011;6604;52.484;13.330;2022-08-19T09:08:40;21.60;;;19.50;;
13075;SDS011;6604;52.484;13.330;2022-08-19T09:11:14;20.87;;;18.80;;
13075;SDS011;6604;52.484;13.330;2022-08-19T09:13:44;20.83;;;18.53;;
13075;SDS011;6604;52.484;13.330;2022-08-19T09:16:13;19.83;;;17.93;;
13075;SDS011;6604;52.484;13.330;2022-08-19T09:18:41;19.50;;;17.57;;
13075;SDS011;6604;52.484;13.330;2022-08-19T09:21:07;18.83;;;16.93;;
13075;SDS011;6604;52.484;13.330;2022-08-19T09:23:34;20.73;;;18.73;;
13075;SDS011;6604;52.484;13.330;2022-08-19T09:26:00;18.50;;;16.57;;
13075;SDS011;6604;52.484;13.330;2022-08-19T09:28:28;18.43;;;16.63;;
13075;SDS011;6604;52.484;13.330;2022-08-19T09:30:56;19.30;;;17.20;;
13075;SDS011;6604;52.484;13.330;2022-08-19T09:33:22;18.43;;;16.63;;
13075;SDS011;6604;52.484;13.330;2022-08-19T09:35:49;18.20;;;16.50;;
13075;SDS011;6604;52.484;13.330;2022-08-19T09:38:15;20.67;;;18.53;;
13075;SDS011;6604;52.484;13.330;2022-08-19T09:40:42;17.43;;;15.73;;
13075;SDS011;6604;52.484;13.330;2022-08-19T09:43:08;17.90;;;16.00;;
13075;SDS011;6604;52.484;13.330;2022-08-19T09:45:37;19.27;;;17.50;;
13075;SDS011;6604;52.484;13.330;2022-08-19T09:48:04;17.93;;;16.10;;
13075;SDS011;6604;52.484;13.330;2022-08-19T09:50:31;18.63;;;16.73;;
13075;SDS011;6604;52.484;13.330;2022-08-19T09:53:00;19.13;;;17.20;;
13075;SDS011;6604;52.484;13.330;2022-08-19T09:55:27;18.23;;;16.37;;
13075;SDS011;6604;52.484;13.330;2022-08-19T09:57:53;19.13;;;17.27;;
13075;SDS011;6604;52.484;13.330;2022-08-19T10:00:20;19.23;;;17.23;;
13075;SDS011;6604;52.484;13.330;2022-08-19T10:02:48;18.30;;;16.60;;
13075;SDS011;6604;52.484;13.330;2022-08-19T10:05:14;18.10;;;16.40;;
13075;SDS011;6604;52.484;13.330;2022-08-19T10:07:59;19.50;;;17.40;;
13075;SDS011;6604;52.484;13.330;2022-08-19T10:10:25;19.63;;;17.73;;
13075;SDS011;6604;52.484;13.330;2022-08-19T10:12:52;18.97;;;17.20;;
13075;SDS011;6604;52.484;13.330;2022-08-19T10:15:20;18.50;;;16.60;;
13075;SDS011;6604;52.484;13.330;2022-08-19T10:17:51;18.07;;;16.33;;
13075;SDS011;6604;52.484;13.330;2022-08-19T10:20:21;18.17;;;16.37;;
13075;SDS011;6604;52.484;13.330;2022-08-19T10:22:48;18.30;;;16.50;;
13075;SDS011;6604;52.484;13.330;2022-08-19T10:25:15;16.77;;;15.27;;
13075;SDS011;6604;52.484;13.330;2022-08-19T10:27:46;17.47;;;15.87;;
13075;SDS011;6604;52.484;13.330;2022-08-19T10:30:13;17.23;;;15.63;;
13075;SDS011;6604;52.484;13.330;2022-08-19T10:32:40;17.80;;;15.97;;
13075;SDS011;6604;52.484;13.330;2022-08-19T10:35:15;18.47;;;16.67;;
13075;SDS011;6604;52.484;13.330;2022-08-19T10:37:42;17.70;;;16.00;;
13075;SDS011;6604;52.484;13.330;2022-08-19T10:40:09;16.50;;;14.93;;
13075;SDS011;6604;52.484;13.330;2022-08-19T10:42:37;18.40;;;16.40;;
13075;SDS011;6604;52.484;13.330;2022-08-19T10:45:12;16.43;;;14.80;;
13075;SDS011;6604;52.484;13.330;2022-08-19T10:47:39;17.03;;;15.53;;
13075;SDS011;6604;52.484;13.330;2022-08-19T10:50:08;17.17;;;15.47;;
13075;SDS011;6604;52.484;13.330;2022-08-19T10:53:04;17.17;;;15.47;;
13075;SDS011;6604;52.484;13.330;2022-08-19T10:55:36;16.27;;;14.67;;
13075;SDS011;6604;52.484;13.330;2022-08-19T10:58:20;16.73;;;15.10;;
13075;SDS011;6604;52.484;13.330;2022-08-19T11:00:50;16.53;;;14.83;;
13075;SDS011;6604;52.484;13.330;2022-08-19T11:03:18;16.07;;;14.37;;
13075;SDS011;6604;52.484;13.330;2022-08-19T11:05:44;16.63;;;14.70;;
13075;SDS011;6604;52.484;13.330;2022-08-19T11:08:12;15.50;;;14.03;;
13075;SDS011;6604;52.484;13.330;2022-08-19T11:10:40;16.07;;;13.90;;
13075;SDS011;6604;52.484;13.330;2022-08-19T11:13:07;16.97;;;13.83;;
13075;SDS011;6604;52.484;13.330;2022-08-19T11:15:33;15.07;;;13.47;;
13075;SDS011;6604;52.484;13.330;2022-08-19T11:18:00;16.10;;;14.60;;
13075;SDS011;6604;52.484;13.330;2022-08-19T11:20:26;14.97;;;13.47;;
13075;SDS011;6604;52.484;13.330;2022-08-19T11:22:53;14.57;;;13.27;;
13075;SDS011;6604;52.484;13.330;2022-08-19T11:25:20;16.43;;;13.97;;
13075;SDS011;6604;52.484;13.330;2022-08-19T11:27:47;24.30;;;20.93;;
13075;SDS011;6604;52.484;13.330;2022-08-19T11:30:16;17.37;;;13.80;;
13075;SDS011;6604;52.484;13.330;2022-08-19T11:32:42;14.20;;;12.90;;
13075;SDS011;6604;52.484;13.330;2022-08-19T11:35:09;16.63;;;15.00;;
13075;SDS011;6604;52.484;13.330;2022-08-19T11:37:36;15.57;;;13.97;;
13075;SDS011;6604;52.484;13.330;2022-08-19T11:40:03;15.30;;;13.80;;
13075;SDS011;6604;52.484;13.330;2022-08-19T11:42:31;16.13;;;14.03;;
13075;SDS011;6604;52.484;13.330;2022-08-19T11:45:15;15.73;;;14.23;;
13075;SDS011;6604;52.484;13.330;2022-08-19T11:47:41;15.37;;;13.97;;
13075;SDS011;6604;52.484;13.330;2022-08-19T11:50:08;14.27;;;12.70;;
13075;SDS011;6604;52.484;13.330;2022-08-19T11:52:35;14.07;;;12.70;;
13075;SDS011;6604;52.484;13.330;2022-08-19T11:55:01;13.03;;;11.83;;
13075;SDS011;6604;52.484;13.330;2022-08-19T11:57:28;13.13;;;11.83;;
13075;SDS011;6604;52.484;13.330;2022-08-19T11:59:56;12.93;;;11.63;;
13075;SDS011;6604;52.484;13.330;2022-08-19T12:02:22;12.20;;;11.10;;
13075;SDS011;6604;52.484;13.330;2022-08-19T12:04:48;12.67;;;11.43;;
13075;SDS011;6604;52.484;13.330;2022-08-19T12:07:15;12.20;;;11.03;;
13075;SDS011;6604;52.484;13.330;2022-08-19T12:09:41;12.67;;;11.37;;
13075;SDS011;6604;52.484;13.330;2022-08-19T12:12:08;12.47;;;11.40;;
13075;SDS011;6604;52.484;13.330;2022-08-19T12:14:34;11.73;;;10.63;;
13075;SDS011;6604;52.484;13.330;2022-08-19T12:17:03;12.47;;;11.13;;
13075;SDS011;6604;52.484;13.330;2022-08-19T12:19:31;13.40;;;11.60;;
13075;SDS011;6604;52.484;13.330;2022-08-19T12:21:59;12.30;;;11.03;;
13075;SDS011;6604;52.484;13.330;2022-08-19T12:24:26;12.80;;;11.60;;
13075;SDS011;6604;52.484;13.330;2022-08-19T12:26:53;11.30;;;10.20;;
13075;SDS011;6604;52.484;13.330;2022-08-19T12:29:20;13.57;;;12.27;;
13075;SDS011;6604;52.484;13.330;2022-08-19T12:31:53;14.37;;;12.97;;
13075;SDS011;6604;52.484;13.330;2022-08-19T12:34:20;14.27;;;12.97;;
13075;SDS011;6604;52.484;13.330;2022-08-19T12:36:47;12.07;;;10.23;;
13075;SDS011;6604;52.484;13.330;2022-08-19T12:39:14;13.07;;;11.80;;
13075;SDS011;6604;52.484;13.330;2022-08-19T12:41:40;10.80;;;9.80;;
13075;SDS011;6604;52.484;13.330;2022-08-19T12:44:07;9.93;;;8.93;;
13075;SDS011;6604;52.484;13.330;2022-08-19T12:46:33;11.00;;;9.90;;
13075;SDS011;6604;52.484;13.330;2022-08-19T12:49:00;11.10;;;10.10;;
13075;SDS011;6604;52.484;13.330;2022-08-19T12:51:28;11.80;;;10.17;;
13075;SDS011;6604;52.484;13.330;2022-08-19T12:53:56;9.80;;;8.87;;
13075;SDS011;6604;52.484;13.330;2022-08-19T12:56:23;13.17;;;11.77;;
13075;SDS011;6604;52.484;13.330;2022-08-19T12:58:49;11.37;;;10.17;;
13075;SDS011;6604;52.484;13.330;2022-08-19T13:01:16;10.77;;;9.77;;
13075;SDS011;6604;52.484;13.330;2022-08-19T13:03:44;10.17;;;9.17;;
13075;SDS011;6604;52.484;13.330;2022-08-19T13:06:11;12.40;;;10.80;;
13075;SDS011;6604;52.484;13.330;2022-08-19T13:08:39;11.77;;;10.67;;
13075;SDS011;6604;52.484;13.330;2022-08-19T13:11:09;16.77;;;15.07;;
13075;SDS011;6604;52.484;13.330;2022-08-19T13:13:37;13.67;;;12.27;;
13075;SDS011;6604;52.484;13.330;2022-08-19T13:16:06;12.83;;;11.63;;
13075;SDS011;6604;52.484;13.330;2022-08-19T13:18:32;33.87;;;30.17;;
13075;SDS011;6604;52.484;13.330;2022-08-19T13:21:01;17.13;;;15.37;;
13075;SDS011;6604;52.484;13.330;2022-08-19T13:23:28;12.60;;;11.40;;
13075;SDS011;6604;52.484;13.330;2022-08-19T13:25:57;12.60;;;11.30;;
13075;SDS011;6604;52.484;13.330;2022-08-19T13:28:23;12.43;;;11.23;;
13075;SDS011;6604;52.484;13.330;2022-08-19T13:30:50;12.07;;;11.03;;
13075;SDS011;6604;52.484;13.330;2022-08-19T13:33:33;22.37;;;20.07;;
13075;SDS011;6604;52.484;13.330;2022-08-19T13:36:00;13.50;;;12.10;;
13075;SDS011;6604;52.484;13.330;2022-08-19T13:38:27;12.47;;;11.17;;
13075;SDS011;6604;52.484;13.330;2022-08-19T13:40:57;13.27;;;12.07;;
13075;SDS011;6604;52.484;13.330;2022-08-19T13:43:29;13.60;;;12.30;;
13075;SDS011;6604;52.484;13.330;2022-08-19T13:45:56;13.80;;;12.50;;
13075;SDS011;6604;52.484;13.330;2022-08-19T13:48:23;13.67;;;12.23;;
13075;SDS011;6604;52.484;13.330;2022-08-19T13:50:51;13.27;;;10.93;;
13075;SDS011;6604;52.484;13.330;2022-08-19T13:53:17;18.07;;;15.67;;
13075;SDS011;6604;52.484;13.330;2022-08-19T13:55:44;13.57;;;12.27;;
13075;SDS011;6604;52.484;13.330;2022-08-19T13:58:11;12.87;;;11.57;;
13075;SDS011;6604;52.484;13.330;2022-08-19T14:00:39;14.20;;;12.87;;
13075;SDS011;6604;52.484;13.330;2022-08-19T14:03:05;12.87;;;11.60;;
13075;SDS011;6604;52.484;13.330;2022-08-19T14:05:32;14.67;;;12.93;;
13075;SDS011;6604;52.484;13.330;2022-08-19T14:07:59;13.73;;;12.43;;
13075;SDS011;6604;52.484;13.330;2022-08-19T14:10:25;12.00;;;10.80;;
13075;SDS011;6604;52.484;13.330;2022-08-19T14:12:53;14.33;;;12.83;;
13075;SDS011;6604;52.484;13.330;2022-08-19T14:15:22;15.20;;;12.53;;
13075;SDS011;6604;52.484;13.330;2022-08-19T14:17:49;17.40;;;12.10;;
13075;SDS011;6604;52.484;13.330;2022-08-19T14:20:15;13.40;;;12.00;;
13075;SDS011;6604;52.484;13.330;2022-08-19T14:22:42;14.63;;;12.33;;
13075;SDS011;6604;52.484;13.330;2022-08-19T14:25:09;12.90;;;11.70;;
13075;SDS011;6604;52.484;13.330;2022-08-19T14:27:37;12.47;;;11.10;;
13075;SDS011;6604;52.484;13.330;2022-08-19T14:30:04;12.70;;;11.40;;
13075;SDS011;6604;52.484;13.330;2022-08-19T14:32:33;14.00;;;12.67;;
13075;SDS011;6604;52.484;13.330;2022-08-19T14:34:59;30.10;;;14.27;;
13075;SDS011;6604;52.484;13.330;2022-08-19T14:37:26;14.90;;;13.43;;
13075;SDS011;6604;52.484;13.330;2022-08-19T14:39:52;12.93;;;11.73;;
13075;SDS011;6604;52.484;13.330;2022-08-19T14:42:19;13.00;;;11.80;;
13075;SDS011;6604;52.484;13.330;2022-08-19T14:44:45;11.77;;;10.63;;
13075;SDS011;6604;52.484;13.330;2022-08-19T14:47:11;16.93;;;15.37;;
13075;SDS011;6604;52.484;13.330;2022-08-19T14:49:39;11.93;;;10.83;;
13075;SDS011;6604;52.484;13.330;2022-08-19T14:52:06;12.97;;;11.70;;
13075;SDS011;6604;52.484;13.330;2022-08-19T14:54:32;11.20;;;10.10;;
13075;SDS011;6604;52.484;13.330;2022-08-19T14:56:58;13.20;;;11.57;;
13075;SDS011;6604;52.484;13.330;2022-08-19T14:59:25;12.30;;;11.20;;
13075;SDS011;6604;52.484;13.330;2022-08-19T15:01:51;15.87;;;14.20;;
13075;SDS011;6604;52.484;13.330;2022-08-19T15:04:18;12.97;;;11.83;;
13075;SDS011;6604;52.484;13.330;2022-08-19T15:06:46;12.57;;;11.40;;
13075;SDS011;6604;52.484;13.330;2022-08-19T15:09:12;11.67;;;10.57;;
13075;SDS011;6604;52.484;13.330;2022-08-19T15:11:47;11.27;;;10.37;;
13075;SDS011;6604;52.484;13.330;2022-08-19T15:14:28;11.13;;;10.10;;
13075;SDS011;6604;52.484;13.330;2022-08-19T15:16:59;12.40;;;11.20;;
13075;SDS011;6604;52.484;13.330;2022-08-19T15:19:33;12.20;;;10.47;;
13075;SDS011;6604;52.484;13.330;2022-08-19T15:22:09;10.87;;;9.77;;
13075;SDS011;6604;52.484;13.330;2022-08-19T15:24:35;11.83;;;10.63;;
13075;SDS011;6604;52.484;13.330;2022-08-19T15:27:03;10.77;;;9.87;;
13075;SDS011;6604;52.484;13.330;2022-08-19T15:29:30;12.13;;;10.10;;
13075;SDS011;6604;52.484;13.330;2022-08-19T15:31:57;10.17;;;9.27;;
13075;SDS011;6604;52.484;13.330;2022-08-19T15:34:24;11.50;;;10.43;;
13075;SDS011;6604;52.484;13.330;2022-08-19T15:36:50;11.30;;;10.23;;
13075;SDS011;6604;52.484;13.330;2022-08-19T15:39:18;11.30;;;10.27;;
13075;SDS011;6604;52.484;13.330;2022-08-19T15:41:45;11.83;;;10.70;;
13075;SDS011;6604;52.484;13.330;2022-08-19T15:44:13;15.13;;;13.73;;
13075;SDS011;6604;52.484;13.330;2022-08-19T15:46:41;12.43;;;11.20;;
13075;SDS011;6604;52.484;13.330;2022-08-19T15:49:08;13.20;;;12.00;;
13075;SDS011;6604;52.484;13.330;2022-08-19T15:51:35;12.87;;;11.70;;
13075;SDS011;6604;52.484;13.330;2022-08-19T15:54:03;12.97;;;11.77;;
13075;SDS011;6604;52.484;13.330;2022-08-19T15:56:31;17.23;;;15.43;;
13075;SDS011;6604;52.484;13.330;2022-08-19T15:59:30;13.33;;;12.10;;
13075;SDS011;6604;52.484;13.330;2022-08-19T16:02:15;12.03;;;10.93;;
13075;SDS011;6604;52.484;13.330;2022-08-19T16:04:59;11.33;;;10.33;;
13075;SDS011;6604;52.484;13.330;2022-08-19T16:07:43;13.57;;;12.27;;
13075;SDS011;6604;52.484;13.330;2022-08-19T16:10:09;13.63;;;12.30;;
13075;SDS011;6604;52.484;13.330;2022-08-19T16:12:37;12.17;;;11.07;;
13075;SDS011;6604;52.484;13.330;2022-08-19T16:15:06;12.70;;;11.50;;
13075;SDS011;6604;52.484;13.330;2022-08-19T16:17:32;11.27;;;10.27;;
13075;SDS011;6604;52.484;13.330;2022-08-19T16:19:59;11.00;;;10.00;;
13075;SDS011;6604;52.484;13.330;2022-08-19T16:22:27;13.97;;;12.67;;
13075;SDS011;6604;52.484;13.330;2022-08-19T16:24:53;10.60;;;9.60;;
13075;SDS011;6604;52.484;13.330;2022-08-19T16:27:20;11.43;;;10.27;;
13075;SDS011;6604;52.484;13.330;2022-08-19T16:29:48;11.60;;;10.40;;
13075;SDS011;6604;52.484;13.330;2022-08-19T16:32:14;10.57;;;9.57;;
13075;SDS011;6604;52.484;13.330;2022-08-19T16:34:41;10.27;;;9.07;;
13075;SDS011;6604;52.484;13.330;2022-08-19T16:37:09;14.80;;;10.10;;
13075;SDS011;6604;52.484;13.330;2022-08-19T16:39:35;10.37;;;9.40;;
13075;SDS011;6604;52.484;13.330;2022-08-19T16:42:02;11.07;;;9.97;;
13075;SDS011;6604;52.484;13.330;2022-08-19T16:44:29;10.37;;;9.30;;
13075;SDS011;6604;52.484;13.330;2022-08-19T16:46:57;11.87;;;9.73;;
13075;SDS011;6604;52.484;13.330;2022-08-19T16:49:24;9.80;;;8.90;;
13075;SDS011;6604;52.484;13.330;2022-08-19T16:51:51;14.33;;;12.93;;
13075;SDS011;6604;52.484;13.330;2022-08-19T16:54:17;10.13;;;9.27;;
13075;SDS011;6604;52.484;13.330;2022-08-19T16:56:44;9.47;;;8.57;;
13075;SDS011;6604;52.484;13.330;2022-08-19T16:59:10;9.07;;;8.27;;
13075;SDS011;6604;52.484;13.330;2022-08-19T17:01:37;8.50;;;7.80;;
13075;SDS011;6604;52.484;13.330;2022-08-19T17:04:06;8.93;;;7.63;;
13075;SDS011;6604;52.484;13.330;2022-08-19T17:06:33;8.17;;;7.47;;
13075;SDS011;6604;52.484;13.330;2022-08-19T17:09:02;8.27;;;7.57;;
13075;SDS011;6604;52.484;13.330;2022-08-19T17:11:29;8.87;;;8.07;;
13075;SDS011;6604;52.484;13.330;2022-08-19T17:13:56;9.53;;;8.60;;
13075;SDS011;6604;52.484;13.330;2022-08-19T17:16:24;8.60;;;7.73;;
13075;SDS011;6604;52.484;13.330;2022-08-19T17:18:51;10.30;;;7.83;;
13075;SDS011;6604;52.484;13.330;2022-08-19T17:21:19;8.00;;;7.40;;
13075;SDS011;6604;52.484;13.330;2022-08-19T17:23:46;7.77;;;7.07;;
13075;SDS011;6604;52.484;13.330;2022-08-19T17:26:14;8.17;;;7.33;;
13075;SDS011;6604;52.484;13.330;2022-08-19T17:28:41;7.50;;;6.80;;
13075;SDS011;6604;52.484;13.330;2022-08-19T17:31:07;7.07;;;6.47;;
13075;SDS011;6604;52.484;13.330;2022-08-19T17:33:33;6.83;;;6.33;;
13075;SDS011;6604;52.484;13.330;2022-08-19T17:36:01;7.73;;;7.00;;
13075;SDS011;6604;52.484;13.330;2022-08-19T17:38:29;7.43;;;6.83;;
13075;SDS011;6604;52.484;13.330;2022-08-19T17:40:56;7.23;;;6.53;;
13075;SDS011;6604;52.484;13.330;2022-08-19T17:43:28;7.00;;;6.40;;
13075;SDS011;6604;52.484;13.330;2022-08-19T17:45:56;7.50;;;6.87;;
13075;SDS011;6604;52.484;13.330;2022-08-19T17:48:23;9.07;;;8.20;;
13075;SDS011;6604;52.484;13.330;2022-08-19T17:50:50;7.90;;;7.20;;
13075;SDS011;6604;52.484;13.330;2022-08-19T17:53:17;8.10;;;7.30;;
13075;SDS011;6604;52.484;13.330;2022-08-19T17:55:45;7.97;;;7.23;;
13075;SDS011;6604;52.484;13.330;2022-08-19T17:58:11;8.07;;;7.33;;
13075;SDS011;6604;52.484;13.330;2022-08-19T18:00:38;8.60;;;7.80;;
13075;SDS011;6604;52.484;13.330;2022-08-19T18:03:04;7.80;;;7.10;;
13075;SDS011;6604;52.484;13.330;2022-08-19T18:05:32;8.80;;;7.90;;
13075;SDS011;6604;52.484;13.330;2022-08-19T18:07:59;9.27;;;8.37;;
13075;SDS011;6604;52.484;13.330;2022-08-19T18:10:26;9.70;;;8.80;;
13075;SDS011;6604;52.484;13.330;2022-08-19T18:12:54;9.97;;;9.07;;
13075;SDS011;6604;52.484;13.330;2022-08-19T18:15:21;10.67;;;9.57;;
13075;SDS011;6604;52.484;13.330;2022-08-19T18:17:48;10.87;;;9.17;;
13075;SDS011;6604;52.484;13.330;2022-08-19T18:20:15;11.20;;;10.20;;
13075;SDS011;6604;52.484;13.330;2022-08-19T18:22:42;12.47;;;11.17;;
13075;SDS011;6604;52.484;13.330;2022-08-19T18:25:10;11.20;;;10.20;;
13075;SDS011;6604;52.484;13.330;2022-08-19T18:27:37;11.13;;;10.13;;
13075;SDS011;6604;52.484;13.330;2022-08-19T18:30:05;10.97;;;9.87;;
13075;SDS011;6604;52.484;13.330;2022-08-19T18:32:32;11.50;;;10.50;;
13075;SDS011;6604;52.484;13.330;2022-08-19T18:34:59;11.47;;;10.37;;
13075;SDS011;6604;52.484;13.330;2022-08-19T18:37:26;11.23;;;10.23;;
13075;SDS011;6604;52.484;13.330;2022-08-19T18:39:52;10.43;;;9.43;;
13075;SDS011;6604;52.484;13.330;2022-08-19T18:42:40;11.33;;;10.33;;
13075;SDS011;6604;52.484;13.330;2022-08-19T18:45:25;11.33;;;10.33;;
13075;SDS011;6604;52.484;13.330;2022-08-19T18:48:09;13.07;;;11.77;;
13075;SDS011;6604;52.484;13.330;2022-08-19T18:50:57;13.00;;;11.70;;
13075;SDS011;6604;52.484;13.330;2022-08-19T18:53:24;14.23;;;12.67;;
13075;SDS011;6604;52.484;13.330;2022-08-19T18:55:51;14.50;;;13.10;;
13075;SDS011;6604;52.484;13.330;2022-08-19T18:58:19;16.60;;;14.90;;
13075;SDS011;6604;52.484;13.330;2022-08-19T19:00:47;16.00;;;14.47;;
13075;SDS011;6604;52.484;13.330;2022-08-19T19:03:14;17.13;;;15.03;;
13075;SDS011;6604;52.484;13.330;2022-08-19T19:05:40;16.03;;;14.53;;
13075;SDS011;6604;52.484;13.330;2022-08-19T19:08:08;16.77;;;15.00;;
13075;SDS011;6604;52.484;13.330;2022-08-19T19:10:36;17.63;;;15.60;;
13075;SDS011;6604;52.484;13.330;2022-08-19T19:13:02;17.20;;;15.40;;
13075;SDS011;6604;52.484;13.330;2022-08-19T19:15:29;17.13;;;15.33;;
13075;SDS011;6604;52.484;13.330;2022-08-19T19:17:58;16.80;;;15.13;;
13075;SDS011;6604;52.484;13.330;2022-08-19T19:20:24;17.20;;;15.50;;
13075;SDS011;6604;52.484;13.330;2022-08-19T19:22:55;18.17;;;16.40;;
13075;SDS011;6604;52.484;13.330;2022-08-19T19:25:21;17.30;;;15.60;;
13075;SDS011;6604;52.484;13.330;2022-08-19T19:27:48;19.63;;;16.57;;
13075;SDS011;6604;52.484;13.330;2022-08-19T19:30:14;17.83;;;15.93;;
13075;SDS011;6604;52.484;13.330;2022-08-19T19:32:41;18.03;;;16.20;;
13075;SDS011;6604;52.484;13.330;2022-08-19T19:35:08;18.30;;;16.50;;
13075;SDS011;6604;52.484;13.330;2022-08-19T19:37:35;18.10;;;16.27;;
13075;SDS011;6604;52.484;13.330;2022-08-19T19:40:02;17.97;;;16.03;;
13075;SDS011;6604;52.484;13.330;2022-08-19T19:42:29;18.90;;;16.93;;
13075;SDS011;6604;52.484;13.330;2022-08-19T19:44:55;18.07;;;15.97;;
13075;SDS011;6604;52.484;13.330;2022-08-19T19:47:22;18.97;;;17.07;;
13075;SDS011;6604;52.484;13.330;2022-08-19T19:49:49;20.07;;;17.97;;
13075;SDS011;6604;52.484;13.330;2022-08-19T19:52:17;18.70;;;16.67;;
13075;SDS011;6604;52.484;13.330;2022-08-19T19:54:44;19.57;;;17.17;;
13075;SDS011;6604;52.484;13.330;2022-08-19T19:57:11;17.17;;;15.37;;
13075;SDS011;6604;52.484;13.330;2022-08-19T19:59:37;18.23;;;16.43;;
13075;SDS011;6604;52.484;13.330;2022-08-19T20:02:03;19.17;;;17.07;;
13075;SDS011;6604;52.484;13.330;2022-08-19T20:04:30;22.47;;;20.13;;
13075;SDS011;6604;52.484;13.330;2022-08-19T20:06:56;19.43;;;16.43;;
13075;SDS011;6604;52.484;13.330;2022-08-19T20:09:24;20.00;;;17.90;;
13075;SDS011;6604;52.484;13.330;2022-08-19T20:11:51;19.57;;;17.57;;
13075;SDS011;6604;52.484;13.330;2022-08-19T20:14:19;18.80;;;16.80;;
13075;SDS011;6604;52.484;13.330;2022-08-19T20:16:46;19.53;;;16.90;;
13075;SDS011;6604;52.484;13.330;2022-08-19T20:19:14;22.80;;;19.23;;
13075;SDS011;6604;52.484;13.330;2022-08-19T20:21:42;19.43;;;17.43;;
13075;SDS011;6604;52.484;13.330;2022-08-19T20:24:10;20.80;;;18.33;;
13075;SDS011;6604;52.484;13.330;2022-08-19T20:26:38;20.20;;;18.10;;
13075;SDS011;6604;52.484;13.330;2022-08-19T20:29:05;19.80;;;17.53;;
13075;SDS011;6604;52.484;13.330;2022-08-19T20:31:31;19.13;;;17.13;;
13075;SDS011;6604;52.484;13.330;2022-08-19T20:33:58;20.07;;;17.60;;
13075;SDS011;6604;52.484;13.330;2022-08-19T20:36:24;19.10;;;17.10;;
13075;SDS011;6604;52.484;13.330;2022-08-19T20:38:51;18.83;;;16.87;;
13075;SDS011;6604;52.484;13.330;2022-08-19T20:41:17;18.87;;;16.47;;
13075;SDS011;6604;52.484;13.330;2022-08-19T20:43:46;17.87;;;16.00;;
13075;SDS011;6604;52.484;13.330;2022-08-19T20:46:12;18.73;;;16.73;;
13075;SDS011;6604;52.484;13.330;2022-08-19T20:48:39;17.27;;;15.47;;
13075;SDS011;6604;52.484;13.330;2022-08-19T20:51:07;16.57;;;14.93;;
13075;SDS011;6604;52.484;13.330;2022-08-19T20:53:34;16.00;;;14.33;;
13075;SDS011;6604;52.484;13.330;2022-08-19T20:56:01;17.10;;;15.40;;
13075;SDS011;6604;52.484;13.330;2022-08-19T20:58:29;16.80;;;15.03;;
13075;SDS011;6604;52.484;13.330;2022-08-19T21:00:58;17.37;;;15.57;;
13075;SDS011;6604;52.484;13.330;2022-08-19T21:03:27;17.73;;;15.93;;
13075;SDS011;6604;52.484;13.330;2022-08-19T21:05:54;17.00;;;15.20;;
13075;SDS011;6604;52.484;13.330;2022-08-19T21:08:21;18.57;;;16.67;;
13075;SDS011;6604;52.484;13.330;2022-08-19T21:10:48;16.30;;;14.57;;
13075;SDS011;6604;52.484;13.330;2022-08-19T21:13:15;17.70;;;14.67;;
13075;SDS011;6604;52.484;13.330;2022-08-19T21:15:42;16.87;;;15.03;;
13075;SDS011;6604;52.484;13.330;2022-08-19T21:18:11;21.70;;;19.43;;
13075;SDS011;6604;52.484;13.330;2022-08-19T21:20:38;18.73;;;16.33;;
13075;SDS011;6604;52.484;13.330;2022-08-19T21:23:05;18.30;;;16.50;;
13075;SDS011;6604;52.484;13.330;2022-08-19T21:25:31;17.20;;;15.37;;
13075;SDS011;6604;52.484;13.330;2022-08-19T21:27:58;18.53;;;16.63;;
13075;SDS011;6604;52.484;13.330;2022-08-19T21:30:24;17.87;;;15.97;;
13075;SDS011;6604;52.484;13.330;2022-08-19T21:32:51;19.07;;;15.70;;
13075;SDS011;6604;52.484;13.330;2022-08-19T21:35:19;20.07;;;16.20;;
13075;SDS011;6604;52.484;13.330;2022-08-19T21:37:47;17.27;;;15.47;;
13075;SDS011;6604;52.484;13.330;2022-08-19T21:40:14;17.07;;;15.27;;
13075;SDS011;6604;52.484;13.330;2022-08-19T21:42:40;18.87;;;16.33;;
13075;SDS011;6604;52.484;13.330;2022-08-19T21:45:07;18.57;;;16.57;;
13075;SDS011;6604;52.484;13.330;2022-08-19T21:47:34;17.00;;;15.10;;
13075;SDS011;6604;52.484;13.330;2022-08-19T21:50:00;19.40;;;16.07;;
13075;SDS011;6604;52.484;13.330;2022-08-19T21:52:28;17.93;;;15.27;;
13075;SDS011;6604;52.484;13.330;2022-08-19T21:54:55;20.03;;;15.20;;
13075;SDS011;6604;52.484;13.330;2022-08-19T21:57:22;18.00;;;16.10;;
13075;SDS011;6604;52.484;13.330;2022-08-19T21:59:48;18.17;;;15.73;;
13075;SDS011;6604;52.484;13.330;2022-08-19T22:02:15;17.70;;;15.80;;
13075;SDS011;6604;52.484;13.330;2022-08-19T22:04:41;22.17;;;17.80;;
13075;SDS011;6604;52.484;13.330;2022-08-19T22:07:08;18.20;;;16.27;;
13075;SDS011;6604;52.484;13.330;2022-08-19T22:09:39;15.53;;;14.03;;
13075;SDS011;6604;52.484;13.330;2022-08-19T22:12:06;16.03;;;14.40;;
13075;SDS011;6604;52.484;13.330;2022-08-19T22:14:33;15.33;;;13.73;;
13075;SDS011;6604;52.484;13.330;2022-08-19T22:17:00;16.00;;;14.43;;
13075;SDS011;6604;52.484;13.330;2022-08-19T22:19:28;14.70;;;13.03;;